This is the latest recevied weather packets stored in our database for station/object OE-11307. If no packets are shown the sender has not sent any weather packets the latest 10 day(s).
| Time | Temp. | Humidity | Pressure | Rain* | Wind** | Luminosity | Snow |
|---|---|---|---|---|---|---|---|
| 1787765714 | 18.89° C | 77% | 853.4 hPa | 0 mm | - | 57 W/m² | - |
| 1787765113 | 19.44° C | 75% | 853.5 hPa | 0 mm | - | 63 W/m² | - |
| 1787764287 | 20° C | 73% | 853.2 hPa | 0 mm | - | 44 W/m² | - |
| 1787763914 | 20.56° C | 68% | 853.3 hPa | 0 mm | - | 82 W/m² | - |
| 1787763313 | 21.11° C | 63% | 853.2 hPa | 0 mm | - | 139 W/m² | - |
| 1787762487 | 21.11° C | 62% | 853.3 hPa | 0 mm | - | 214 W/m² | - |
| 1787762114 | 21.11° C | 66% | 853.2 hPa | 0 mm | - | 132 W/m² | - |
| 1787761514 | 21.67° C | 62% | 853.2 hPa | 0 mm | - | 189 W/m² | - |
| 1787760687 | 21.67° C | 61% | 853.2 hPa | 0 mm | - | 340 W/m² | - |
| 1787760314 | 21.67° C | 63% | 853 hPa | 0 mm | - | 252 W/m² | - |
| 1787759714 | 21.67° C | 60% | 852.9 hPa | 0 mm | - | 334 W/m² | - |
| 1787758887 | 21.67° C | 61% | 852.9 hPa | 0 mm | - | 403 W/m² | - |
| 1787758513 | 21.67° C | 63% | 853 hPa | 0 mm | - | 290 W/m² | - |
| 1787757914 | 21.67° C | 63% | 853.1 hPa | 0 mm | - | 271 W/m² | - |
| 1787757087 | 21.67° C | 63% | 853.2 hPa | 0 mm | - | 265 W/m² | - |
| 1787756714 | 22.22° C | 62% | 853.3 hPa | 0 mm | - | 284 W/m² | - |
| 1787756114 | 22.22° C | 61% | 853.4 hPa | 0 mm | - | 359 W/m² | - |
| 1787755287 | 21.67° C | 58% | 853.3 hPa | 0 mm | - | 384 W/m² | - |
| 1787754914 | 22.22° C | 59% | 853.5 hPa | 0 mm | - | 384 W/m² | - |
| 1787754314 | 22.22° C | 56% | 853.5 hPa | 0 mm | - | 397 W/m² | - |
| 1787753487 | 22.22° C | 57% | 853.8 hPa | 0 mm | - | 340 W/m² | - |
| 1787753114 | 22.22° C | 57% | 853.9 hPa | 0 mm | - | 353 W/m² | - |
| 1787752514 | 22.78° C | 56% | 853.9 hPa | 0 mm | - | 473 W/m² | - |
| 1787751687 | 22.78° C | 54% | 853.9 hPa | 0 mm | - | 517 W/m² | - |
| 1787751314 | 23.33° C | 53% | 854 hPa | 0 mm | - | 693 W/m² | - |
* Rain latest hour (hover to see other rain measurements)
** Current wind speed in m/s (hover to see current wind gust speed)